sensor_id;sensor_type;location;lat;lon;timestamp;pressure;altitude;pressure_sealevel;temperature;humidity
804;BME280;25687;49.976;8.240;2023-01-19T00:00:24;98977.72;;;-3.52;100.00
804;BME280;25687;49.976;8.240;2023-01-19T00:02:49;98981.06;;;-3.51;100.00
804;BME280;25687;49.976;8.240;2023-01-19T00:05:15;98976.94;;;-3.55;100.00
804;BME280;25687;49.976;8.240;2023-01-19T00:07:40;98982.88;;;-3.60;100.00
804;BME280;25687;49.976;8.240;2023-01-19T00:10:06;98979.47;;;-3.59;100.00
804;BME280;25687;49.976;8.240;2023-01-19T00:12:31;98976.00;;;-3.50;100.00
804;BME280;25687;49.976;8.240;2023-01-19T00:14:56;98977.03;;;-3.62;100.00
804;BME280;25687;49.976;8.240;2023-01-19T00:17:21;98979.56;;;-3.65;100.00
804;BME280;25687;49.976;8.240;2023-01-19T00:19:47;98976.25;;;-3.68;100.00
804;BME280;25687;49.976;8.240;2023-01-19T00:22:12;98982.72;;;-3.50;100.00
804;BME280;25687;49.976;8.240;2023-01-19T00:24:37;98981.84;;;-3.48;100.00
804;BME280;25687;49.976;8.240;2023-01-19T00:27:02;98983.44;;;-3.42;100.00
804;BME280;25687;49.976;8.240;2023-01-19T00:29:28;98990.91;;;-3.36;100.00
804;BME280;25687;49.976;8.240;2023-01-19T00:31:57;98989.19;;;-3.35;100.00
804;BME280;25687;49.976;8.240;2023-01-19T00:34:22;99000.97;;;-3.39;100.00
804;BME280;25687;49.976;8.240;2023-01-19T00:36:47;99004.47;;;-3.48;100.00
804;BME280;25687;49.976;8.240;2023-01-19T00:39:13;99002.94;;;-3.57;100.00
804;BME280;25687;49.976;8.240;2023-01-19T00:41:38;99002.09;;;-3.59;100.00
804;BME280;25687;49.976;8.240;2023-01-19T00:44:22;99012.28;;;-3.66;100.00
804;BME280;25687;49.976;8.240;2023-01-19T00:46:47;99012.97;;;-3.57;100.00
804;BME280;25687;49.976;8.240;2023-01-19T00:49:12;99016.22;;;-3.48;100.00
804;BME280;25687;49.976;8.240;2023-01-19T00:51:37;99012.88;;;-3.49;100.00
804;BME280;25687;49.976;8.240;2023-01-19T00:54:03;99009.50;;;-3.48;100.00
804;BME280;25687;49.976;8.240;2023-01-19T00:56:32;99013.56;;;-3.39;100.00
804;BME280;25687;49.976;8.240;2023-01-19T00:58:57;99023.69;;;-3.42;100.00
804;BME280;25687;49.976;8.240;2023-01-19T01:01:22;99012.88;;;-3.47;100.00
804;BME280;25687;49.976;8.240;2023-01-19T01:03:47;99019.47;;;-3.42;100.00
804;BME280;25687;49.976;8.240;2023-01-19T01:06:13;99017.88;;;-3.49;100.00
804;BME280;25687;49.976;8.240;2023-01-19T01:08:38;99018.06;;;-3.60;100.00
804;BME280;25687;49.976;8.240;2023-01-19T01:11:03;99021.47;;;-3.65;100.00
804;BME280;25687;49.976;8.240;2023-01-19T01:13:28;99024.06;;;-3.70;100.00
804;BME280;25687;49.976;8.240;2023-01-19T01:15:54;99023.94;;;-3.62;100.00
804;BME280;25687;49.976;8.240;2023-01-19T01:18:20;99024.03;;;-3.68;100.00
804;BME280;25687;49.976;8.240;2023-01-19T01:20:45;99033.22;;;-3.64;100.00
804;BME280;25687;49.976;8.240;2023-01-19T01:23:11;99039.81;;;-3.57;100.00
804;BME280;25687;49.976;8.240;2023-01-19T01:25:36;99042.31;;;-3.57;100.00
804;BME280;25687;49.976;8.240;2023-01-19T01:28:03;99040.78;;;-3.66;100.00
804;BME280;25687;49.976;8.240;2023-01-19T01:30:30;99041.63;;;-3.68;100.00
804;BME280;25687;49.976;8.240;2023-01-19T01:32:55;99048.31;;;-3.66;100.00
804;BME280;25687;49.976;8.240;2023-01-19T01:35:20;99047.47;;;-3.66;100.00
804;BME280;25687;49.976;8.240;2023-01-19T01:37:45;99047.44;;;-3.65;100.00
804;BME280;25687;49.976;8.240;2023-01-19T01:40:15;99042.53;;;-3.73;100.00
804;BME280;25687;49.976;8.240;2023-01-19T01:42:40;99041.63;;;-3.68;100.00
804;BME280;25687;49.976;8.240;2023-01-19T01:45:14;99044.06;;;-3.61;100.00
804;BME280;25687;49.976;8.240;2023-01-19T01:47:47;99040.72;;;-3.63;100.00
804;BME280;25687;49.976;8.240;2023-01-19T01:50:14;99043.28;;;-3.66;100.00
804;BME280;25687;49.976;8.240;2023-01-19T01:52:44;99057.59;;;-3.73;100.00
804;BME280;25687;49.976;8.240;2023-01-19T01:55:10;99051.78;;;-3.76;100.00
804;BME280;25687;49.976;8.240;2023-01-19T01:57:37;99060.16;;;-3.77;100.00
804;BME280;25687;49.976;8.240;2023-01-19T02:00:04;99066.16;;;-3.84;100.00
804;BME280;25687;49.976;8.240;2023-01-19T02:02:30;99071.06;;;-3.77;100.00
804;BME280;25687;49.976;8.240;2023-01-19T02:05:17;99071.84;;;-3.75;100.00
804;BME280;25687;49.976;8.240;2023-01-19T02:07:48;99068.50;;;-3.74;100.00
804;BME280;25687;49.976;8.240;2023-01-19T02:10:33;99069.28;;;-3.67;100.00
804;BME280;25687;49.976;8.240;2023-01-19T02:13:18;99074.34;;;-3.71;100.00
804;BME280;25687;49.976;8.240;2023-01-19T02:15:48;99075.28;;;-3.80;100.00
804;BME280;25687;49.976;8.240;2023-01-19T02:18:13;99076.19;;;-3.84;100.00
804;BME280;25687;49.976;8.240;2023-01-19T02:20:39;99073.63;;;-3.81;100.00
804;BME280;25687;49.976;8.240;2023-01-19T02:23:06;99075.28;;;-3.79;100.00
804;BME280;25687;49.976;8.240;2023-01-19T02:25:37;99071.09;;;-3.78;100.00
804;BME280;25687;49.976;8.240;2023-01-19T02:28:04;99070.25;;;-3.79;100.00
804;BME280;25687;49.976;8.240;2023-01-19T02:30:29;99070.28;;;-3.82;100.00
804;BME280;25687;49.976;8.240;2023-01-19T02:32:55;99067.03;;;-3.90;100.00
804;BME280;25687;49.976;8.240;2023-01-19T02:35:20;99068.81;;;-4.00;100.00
804;BME280;25687;49.976;8.240;2023-01-19T02:37:46;99057.13;;;-4.02;100.00
804;BME280;25687;49.976;8.240;2023-01-19T02:40:13;99064.66;;;-4.02;100.00
804;BME280;25687;49.976;8.240;2023-01-19T02:42:43;99062.19;;;-4.04;100.00
804;BME280;25687;49.976;8.240;2023-01-19T02:45:11;99062.16;;;-4.02;100.00
804;BME280;25687;49.976;8.240;2023-01-19T02:47:41;99057.00;;;-3.93;100.00
804;BME280;25687;49.976;8.240;2023-01-19T02:52:51;99039.34;;;-3.85;100.00
804;BME280;25687;49.976;8.240;2023-01-19T02:55:19;99045.25;;;-3.90;100.00
804;BME280;25687;49.976;8.240;2023-01-19T03:06:07;99049.63;;;-4.04;100.00
804;BME280;25687;49.976;8.240;2023-01-19T03:11:09;99047.03;;;-3.98;100.00
804;BME280;25687;49.976;8.240;2023-01-19T03:18:38;99045.38;;;-3.99;100.00
804;BME280;25687;49.976;8.240;2023-01-19T03:21:07;99047.81;;;-3.93;100.00
804;BME280;25687;49.976;8.240;2023-01-19T03:23:33;99049.38;;;-3.84;100.00
804;BME280;25687;49.976;8.240;2023-01-19T03:25:59;99039.06;;;-3.65;100.00
804;BME280;25687;49.976;8.240;2023-01-19T03:28:26;99035.75;;;-3.67;100.00
804;BME280;25687;49.976;8.240;2023-01-19T03:30:55;99042.44;;;-3.66;100.00
804;BME280;25687;49.976;8.240;2023-01-19T03:33:23;99045.03;;;-3.73;100.00
804;BME280;25687;49.976;8.240;2023-01-19T03:35:51;99051.59;;;-3.62;100.00
804;BME280;25687;49.976;8.240;2023-01-19T03:38:23;99041.38;;;-3.50;100.00
804;BME280;25687;49.976;8.240;2023-01-19T03:40:49;99044.56;;;-3.37;100.00
804;BME280;25687;49.976;8.240;2023-01-19T03:43:16;99041.28;;;-3.42;100.00
804;BME280;25687;49.976;8.240;2023-01-19T03:45:41;99048.50;;;-3.20;100.00
804;BME280;25687;49.976;8.240;2023-01-19T03:48:07;99043.53;;;-3.25;100.00
804;BME280;25687;49.976;8.240;2023-01-19T03:50:32;99046.03;;;-3.23;100.00
804;BME280;25687;49.976;8.240;2023-01-19T03:53:04;99045.16;;;-3.21;100.00
804;BME280;25687;49.976;8.240;2023-01-19T03:55:30;99056.81;;;-3.17;100.00
804;BME280;25687;49.976;8.240;2023-01-19T03:57:55;99057.56;;;-3.12;100.00
804;BME280;25687;49.976;8.240;2023-01-19T04:00:20;99048.88;;;-2.92;100.00
804;BME280;25687;49.976;8.240;2023-01-19T04:02:45;99048.06;;;-2.94;100.00
804;BME280;25687;49.976;8.240;2023-01-19T04:05:10;99052.91;;;-2.82;100.00
804;BME280;25687;49.976;8.240;2023-01-19T04:07:35;99057.13;;;-2.82;100.00
804;BME280;25687;49.976;8.240;2023-01-19T04:10:01;99059.38;;;-2.67;100.00
804;BME280;25687;49.976;8.240;2023-01-19T04:12:26;99060.91;;;-2.60;100.00
804;BME280;25687;49.976;8.240;2023-01-19T04:14:51;99061.88;;;-2.65;100.00
804;BME280;25687;49.976;8.240;2023-01-19T04:17:16;99067.72;;;-2.65;100.00
804;BME280;25687;49.976;8.240;2023-01-19T04:19:41;99055.97;;;-2.63;100.00
804;BME280;25687;49.976;8.240;2023-01-19T04:22:07;99052.75;;;-2.72;100.00
804;BME280;25687;49.976;8.240;2023-01-19T04:24:32;99056.97;;;-2.74;100.00
804;BME280;25687;49.976;8.240;2023-01-19T04:26:57;99056.00;;;-2.64;100.00
804;BME280;25687;49.976;8.240;2023-01-19T04:29:23;99054.25;;;-2.62;100.00
804;BME280;25687;49.976;8.240;2023-01-19T04:31:48;99054.31;;;-2.67;100.00
804;BME280;25687;49.976;8.240;2023-01-19T04:34:13;99062.63;;;-2.60;100.00
804;BME280;25687;49.976;8.240;2023-01-19T04:36:38;99063.84;;;-2.36;100.00
804;BME280;25687;49.976;8.240;2023-01-19T04:39:04;99065.63;;;-2.41;100.00
804;BME280;25687;49.976;8.240;2023-01-19T04:41:29;99065.38;;;-2.25;100.00
804;BME280;25687;49.976;8.240;2023-01-19T04:43:54;99061.88;;;-2.18;100.00
804;BME280;25687;49.976;8.240;2023-01-19T04:46:20;99056.59;;;-2.06;100.00
804;BME280;25687;49.976;8.240;2023-01-19T04:48:45;99056.38;;;-1.95;100.00
804;BME280;25687;49.976;8.240;2023-01-19T04:51:10;99052.94;;;-1.91;100.00
804;BME280;25687;49.976;8.240;2023-01-19T04:53:35;99056.16;;;-1.84;100.00
804;BME280;25687;49.976;8.240;2023-01-19T04:56:00;99060.25;;;-1.79;100.00
804;BME280;25687;49.976;8.240;2023-01-19T04:58:26;99056.72;;;-1.70;100.00
804;BME280;25687;49.976;8.240;2023-01-19T05:00:51;99058.25;;;-1.64;100.00
804;BME280;25687;49.976;8.240;2023-01-19T05:03:17;99063.06;;;-1.53;100.00
804;BME280;25687;49.976;8.240;2023-01-19T05:05:43;99057.84;;;-1.46;100.00
804;BME280;25687;49.976;8.240;2023-01-19T05:08:08;99059.34;;;-1.37;100.00
804;BME280;25687;49.976;8.240;2023-01-19T05:10:33;99053.25;;;-1.28;100.00
804;BME280;25687;49.976;8.240;2023-01-19T05:13:00;99053.97;;;-1.23;100.00
804;BME280;25687;49.976;8.240;2023-01-19T05:15:25;99053.91;;;-1.20;100.00
804;BME280;25687;49.976;8.240;2023-01-19T05:17:50;99060.66;;;-1.20;100.00
804;BME280;25687;49.976;8.240;2023-01-19T05:20:16;99069.78;;;-1.15;100.00
804;BME280;25687;49.976;8.240;2023-01-19T05:22:42;99073.69;;;-1.01;100.00
804;BME280;25687;49.976;8.240;2023-01-19T05:25:12;99063.34;;;-0.90;100.00
804;BME280;25687;49.976;8.240;2023-01-19T05:27:37;99067.53;;;-0.89;100.00
804;BME280;25687;49.976;8.240;2023-01-19T05:30:02;99062.53;;;-0.92;100.00
804;BME280;25687;49.976;8.240;2023-01-19T05:32:29;99070.22;;;-0.97;100.00
804;BME280;25687;49.976;8.240;2023-01-19T05:34:54;99072.56;;;-0.89;100.00
804;BME280;25687;49.976;8.240;2023-01-19T05:37:19;99068.41;;;-0.92;100.00
804;BME280;25687;49.976;8.240;2023-01-19T05:39:44;99070.09;;;-0.92;100.00
804;BME280;25687;49.976;8.240;2023-01-19T05:42:10;99068.84;;;-0.76;100.00
804;BME280;25687;49.976;8.240;2023-01-19T05:44:35;99071.47;;;-0.79;100.00
804;BME280;25687;49.976;8.240;2023-01-19T05:47:00;99078.09;;;-0.75;100.00
804;BME280;25687;49.976;8.240;2023-01-19T05:49:25;99076.13;;;-0.62;100.00
804;BME280;25687;49.976;8.240;2023-01-19T05:51:50;99081.22;;;-0.65;100.00
804;BME280;25687;49.976;8.240;2023-01-19T05:54:15;99096.22;;;-0.59;100.00
804;BME280;25687;49.976;8.240;2023-01-19T05:56:41;99090.31;;;-0.58;100.00
804;BME280;25687;49.976;8.240;2023-01-19T05:59:06;99095.56;;;-0.67;100.00
804;BME280;25687;49.976;8.240;2023-01-19T06:01:32;99097.38;;;-0.72;100.00
804;BME280;25687;49.976;8.240;2023-01-19T06:04:00;99099.75;;;-0.66;100.00
804;BME280;25687;49.976;8.240;2023-01-19T06:06:25;99098.94;;;-0.67;100.00
804;BME280;25687;49.976;8.240;2023-01-19T06:08:50;99108.00;;;-0.58;100.00
804;BME280;25687;49.976;8.240;2023-01-19T06:11:15;99105.47;;;-0.58;100.00
804;BME280;25687;49.976;8.240;2023-01-19T06:13:41;99102.84;;;-0.55;100.00
804;BME280;25687;49.976;8.240;2023-01-19T06:16:06;99104.25;;;-0.43;100.00
804;BME280;25687;49.976;8.240;2023-01-19T06:18:32;99103.44;;;-0.45;100.00
804;BME280;25687;49.976;8.240;2023-01-19T06:20:57;99104.56;;;-0.55;100.00
804;BME280;25687;49.976;8.240;2023-01-19T06:23:25;99111.50;;;-0.63;100.00
804;BME280;25687;49.976;8.240;2023-01-19T06:25:51;99109.91;;;-0.68;100.00
804;BME280;25687;49.976;8.240;2023-01-19T06:28:16;99113.09;;;-0.59;100.00
804;BME280;25687;49.976;8.240;2023-01-19T06:30:41;99119.81;;;-0.60;100.00
804;BME280;25687;49.976;8.240;2023-01-19T06:33:06;99115.41;;;-0.52;100.00
804;BME280;25687;49.976;8.240;2023-01-19T06:35:31;99123.81;;;-0.50;100.00
804;BME280;25687;49.976;8.240;2023-01-19T06:37:57;99122.09;;;-0.49;100.00
804;BME280;25687;49.976;8.240;2023-01-19T06:40:22;99116.84;;;-0.41;100.00
804;BME280;25687;49.976;8.240;2023-01-19T06:42:47;99121.84;;;-0.40;100.00
804;BME280;25687;49.976;8.240;2023-01-19T06:45:12;99124.19;;;-0.32;100.00
804;BME280;25687;49.976;8.240;2023-01-19T06:47:37;99126.56;;;-0.26;100.00
804;BME280;25687;49.976;8.240;2023-01-19T06:50:03;99126.56;;;-0.26;100.00
804;BME280;25687;49.976;8.240;2023-01-19T06:52:28;99133.75;;;-0.10;100.00
804;BME280;25687;49.976;8.240;2023-01-19T06:54:53;99134.59;;;-0.11;100.00
804;BME280;25687;49.976;8.240;2023-01-19T06:57:18;99138.69;;;-0.06;100.00
804;BME280;25687;49.976;8.240;2023-01-19T06:59:44;99135.34;;;-0.06;100.00
804;BME280;25687;49.976;8.240;2023-01-19T07:02:09;99127.72;;;-0.05;100.00
804;BME280;25687;49.976;8.240;2023-01-19T07:04:42;99131.09;;;-0.06;100.00
804;BME280;25687;49.976;8.240;2023-01-19T07:07:07;99121.22;;;-0.15;100.00
804;BME280;25687;49.976;8.240;2023-01-19T07:09:32;99129.38;;;-0.04;100.00
804;BME280;25687;49.976;8.240;2023-01-19T07:11:57;99127.78;;;-0.08;100.00
804;BME280;25687;49.976;8.240;2023-01-19T07:14:22;99129.38;;;-0.05;100.00
804;BME280;25687;49.976;8.240;2023-01-19T07:16:49;99135.34;;;-0.08;100.00
804;BME280;25687;49.976;8.240;2023-01-19T07:19:14;99131.22;;;-0.10;100.00
804;BME280;25687;49.976;8.240;2023-01-19T07:21:39;99129.44;;;-0.07;100.00
804;BME280;25687;49.976;8.240;2023-01-19T07:24:05;99122.66;;;-0.05;100.00
804;BME280;25687;49.976;8.240;2023-01-19T07:26:30;99131.91;;;-0.05;100.00
804;BME280;25687;49.976;8.240;2023-01-19T07:28:55;99128.81;;;-0.15;100.00
804;BME280;25687;49.976;8.240;2023-01-19T07:31:20;99131.97;;;-0.07;100.00
804;BME280;25687;49.976;8.240;2023-01-19T07:33:46;99135.34;;;-0.08;100.00
804;BME280;25687;49.976;8.240;2023-01-19T07:36:11;99135.03;;;0.05;100.00
804;BME280;25687;49.976;8.240;2023-01-19T07:38:36;99136.81;;;0.01;100.00
804;BME280;25687;49.976;8.240;2023-01-19T07:41:05;99139.28;;;0.04;100.00
804;BME280;25687;49.976;8.240;2023-01-19T07:43:31;99132.81;;;-0.08;100.00
804;BME280;25687;49.976;8.240;2023-01-19T07:45:57;99126.75;;;-0.01;100.00
804;BME280;25687;49.976;8.240;2023-01-19T07:48:23;99133.00;;;-0.14;100.00
804;BME280;25687;49.976;8.240;2023-01-19T07:50:49;99134.06;;;-0.23;100.00
804;BME280;25687;49.976;8.240;2023-01-19T07:53:14;99134.00;;;-0.21;100.00
804;BME280;25687;49.976;8.240;2023-01-19T07:55:39;99122.59;;;-0.36;100.00
804;BME280;25687;49.976;8.240;2023-01-19T07:58:05;99127.19;;;-0.51;100.00
804;BME280;25687;49.976;8.240;2023-01-19T08:00:31;99126.44;;;-0.54;100.00
804;BME280;25687;49.976;8.240;2023-01-19T08:02:57;99124.63;;;-0.49;100.00
804;BME280;25687;49.976;8.240;2023-01-19T08:05:23;99137.22;;;-0.47;100.00
804;BME280;25687;49.976;8.240;2023-01-19T08:07:49;99130.69;;;-0.56;100.00
804;BME280;25687;49.976;8.240;2023-01-19T08:10:16;99137.28;;;-0.51;100.00
804;BME280;25687;49.976;8.240;2023-01-19T08:12:42;99137.31;;;-0.52;100.00
804;BME280;25687;49.976;8.240;2023-01-19T08:15:10;99126.34;;;-0.50;100.00
804;BME280;25687;49.976;8.240;2023-01-19T08:17:35;99135.69;;;-0.55;100.00
804;BME280;25687;49.976;8.240;2023-01-19T08:20:01;99131.25;;;-0.45;100.00
804;BME280;25687;49.976;8.240;2023-01-19T08:22:26;99124.25;;;-0.35;100.00
804;BME280;25687;49.976;8.240;2023-01-19T08:24:51;99128.47;;;-0.34;100.00
804;BME280;25687;49.976;8.240;2023-01-19T08:27:18;99122.34;;;-0.25;100.00
804;BME280;25687;49.976;8.240;2023-01-19T08:29:44;99125.88;;;-0.31;100.00
804;BME280;25687;49.976;8.240;2023-01-19T08:32:09;99127.91;;;-0.12;100.00
804;BME280;25687;49.976;8.240;2023-01-19T08:34:34;99138.34;;;0.07;100.00
804;BME280;25687;49.976;8.240;2023-01-19T08:36:59;99137.28;;;0.15;100.00
804;BME280;25687;49.976;8.240;2023-01-19T08:39:25;99142.44;;;0.11;100.00
804;BME280;25687;49.976;8.240;2023-01-19T08:41:51;99135.91;;;0.04;100.00
804;BME280;25687;49.976;8.240;2023-01-19T08:44:17;99138.09;;;0.16;100.00
804;BME280;25687;49.976;8.240;2023-01-19T08:46:42;99148.94;;;0.21;100.00
804;BME280;25687;49.976;8.240;2023-01-19T08:49:07;99155.44;;;0.30;100.00
804;BME280;25687;49.976;8.240;2023-01-19T08:51:33;99157.81;;;0.36;100.00
804;BME280;25687;49.976;8.240;2023-01-19T08:53:59;99159.03;;;0.53;100.00
804;BME280;25687;49.976;8.240;2023-01-19T08:56:24;99162.81;;;0.68;100.00
804;BME280;25687;49.976;8.240;2023-01-19T08:58:49;99165.16;;;0.74;100.00
804;BME280;25687;49.976;8.240;2023-01-19T09:01:14;99162.34;;;0.83;100.00
804;BME280;25687;49.976;8.240;2023-01-19T09:03:41;99161.13;;;0.96;100.00
804;BME280;25687;49.976;8.240;2023-01-19T09:06:06;99168.81;;;1.22;100.00
804;BME280;25687;49.976;8.240;2023-01-19T09:08:32;99167.34;;;1.68;100.00
804;BME280;25687;49.976;8.240;2023-01-19T09:10:57;99166.47;;;2.18;100.00
804;BME280;25687;49.976;8.240;2023-01-19T09:13:22;99170.53;;;2.94;100.00
804;BME280;25687;49.976;8.240;2023-01-19T09:15:48;99168.59;;;3.86;100.00
804;BME280;25687;49.976;8.240;2023-01-19T09:18:15;99162.22;;;5.65;100.00
804;BME280;25687;49.976;8.240;2023-01-19T09:20:40;99156.31;;;6.65;100.00
804;BME280;25687;49.976;8.240;2023-01-19T09:23:07;99166.94;;;6.73;98.74
804;BME280;25687;49.976;8.240;2023-01-19T09:25:34;99159.78;;;6.64;99.20
804;BME280;25687;49.976;8.240;2023-01-19T09:27:59;99168.59;;;7.06;96.51
804;BME280;25687;49.976;8.240;2023-01-19T09:30:26;99159.56;;;6.85;96.11
804;BME280;25687;49.976;8.240;2023-01-19T09:32:51;99161.13;;;7.79;91.40
804;BME280;25687;49.976;8.240;2023-01-19T09:35:16;99158.69;;;7.16;87.03
804;BME280;25687;49.976;8.240;2023-01-19T09:37:45;99162.19;;;7.60;90.57
804;BME280;25687;49.976;8.240;2023-01-19T09:40:11;99162.53;;;8.13;83.29
804;BME280;25687;49.976;8.240;2023-01-19T09:42:44;99160.34;;;9.47;71.48
804;BME280;25687;49.976;8.240;2023-01-19T09:45:16;99169.22;;;8.45;70.91
804;BME280;25687;49.976;8.240;2023-01-19T09:47:43;99168.97;;;7.31;85.37
804;BME280;25687;49.976;8.240;2023-01-19T09:50:15;99164.69;;;6.19;94.20
804;BME280;25687;49.976;8.240;2023-01-19T09:52:44;99178.72;;;5.58;98.46
804;BME280;25687;49.976;8.240;2023-01-19T09:55:25;99179.59;;;5.22;100.00
804;BME280;25687;49.976;8.240;2023-01-19T09:57:50;99180.81;;;5.32;100.00
804;BME280;25687;49.976;8.240;2023-01-19T10:00:16;99177.63;;;5.63;100.00
804;BME280;25687;49.976;8.240;2023-01-19T10:02:43;99174.59;;;5.73;100.00
804;BME280;25687;49.976;8.240;2023-01-19T10:05:30;99179.09;;;5.68;100.00
804;BME280;25687;49.976;8.240;2023-01-19T10:10:28;99191.34;;;4.68;100.00
804;BME280;25687;49.976;8.240;2023-01-19T10:13:00;99194.78;;;4.29;100.00
804;BME280;25687;49.976;8.240;2023-01-19T10:18:05;99193.13;;;3.66;100.00
804;BME280;25687;49.976;8.240;2023-01-19T10:20:43;99192.53;;;3.60;100.00
804;BME280;25687;49.976;8.240;2023-01-19T10:23:17;99189.31;;;3.56;100.00
804;BME280;25687;49.976;8.240;2023-01-19T10:25:44;99187.69;;;3.53;100.00
804;BME280;25687;49.976;8.240;2023-01-19T10:28:10;99190.56;;;3.46;100.00
804;BME280;25687;49.976;8.240;2023-01-19T10:30:37;99190.31;;;3.52;100.00
804;BME280;25687;49.976;8.240;2023-01-19T10:33:06;99190.22;;;3.55;100.00
804;BME280;25687;49.976;8.240;2023-01-19T10:35:31;99188.16;;;3.63;100.00
804;BME280;25687;49.976;8.240;2023-01-19T10:37:57;99180.94;;;3.75;100.00
804;BME280;25687;49.976;8.240;2023-01-19T10:40:31;99187.63;;;3.77;100.00
804;BME280;25687;49.976;8.240;2023-01-19T10:42:58;99182.84;;;3.90;100.00
804;BME280;25687;49.976;8.240;2023-01-19T10:45:24;99180.41;;;3.66;100.00
804;BME280;25687;49.976;8.240;2023-01-19T10:47:49;99185.28;;;3.50;100.00
804;BME280;25687;49.976;8.240;2023-01-19T10:52:55;99189.13;;;3.38;100.00
804;BME280;25687;49.976;8.240;2023-01-19T10:57:56;99182.03;;;3.47;100.00
804;BME280;25687;49.976;8.240;2023-01-19T11:00:54;99188.09;;;3.44;100.00
804;BME280;25687;49.976;8.240;2023-01-19T11:03:23;99173.31;;;3.32;100.00
804;BME280;25687;49.976;8.240;2023-01-19T11:05:49;99175.94;;;3.51;100.00
804;BME280;25687;49.976;8.240;2023-01-19T11:08:48;99170.31;;;3.65;100.00
804;BME280;25687;49.976;8.240;2023-01-19T11:11:05;99171.84;;;3.69;100.00
804;BME280;25687;49.976;8.240;2023-01-19T11:13:36;99167.06;;;3.61;100.00
804;BME280;25687;49.976;8.240;2023-01-19T11:18:37;99174.69;;;3.61;100.00
804;BME280;25687;49.976;8.240;2023-01-19T11:23:31;99177.84;;;3.46;100.00
804;BME280;25687;49.976;8.240;2023-01-19T11:25:58;99182.28;;;3.41;100.00
804;BME280;25687;49.976;8.240;2023-01-19T11:30:57;99186.50;;;3.42;100.00
804;BME280;25687;49.976;8.240;2023-01-19T11:33:24;99184.78;;;3.20;100.00
804;BME280;25687;49.976;8.240;2023-01-19T11:35:49;99187.28;;;3.21;100.00
804;BME280;25687;49.976;8.240;2023-01-19T11:38:25;99175.31;;;3.23;100.00
804;BME280;25687;49.976;8.240;2023-01-19T11:40:55;99186.03;;;3.10;100.00
804;BME280;25687;49.976;8.240;2023-01-19T11:43:21;99180.47;;;3.00;100.00
804;BME280;25687;49.976;8.240;2023-01-19T11:45:47;99187.03;;;3.05;100.00
804;BME280;25687;49.976;8.240;2023-01-19T11:51:09;99177.13;;;3.21;100.00
804;BME280;25687;49.976;8.240;2023-01-19T11:53:37;99171.31;;;3.18;100.00
804;BME280;25687;49.976;8.240;2023-01-19T11:58:28;99173.78;;;3.19;100.00
804;BME280;25687;49.976;8.240;2023-01-19T12:03:38;99165.31;;;3.41;100.00
804;BME280;25687;49.976;8.240;2023-01-19T12:08:33;99172.28;;;3.36;100.00
804;BME280;25687;49.976;8.240;2023-01-19T12:10:58;99171.88;;;3.47;100.00
804;BME280;25687;49.976;8.240;2023-01-19T12:13:25;99166.69;;;3.50;100.00
804;BME280;25687;49.976;8.240;2023-01-19T12:16:10;99172.69;;;3.47;100.00
804;BME280;25687;49.976;8.240;2023-01-19T12:18:38;99166.69;;;3.50;100.00
804;BME280;25687;49.976;8.240;2023-01-19T12:21:05;99171.91;;;3.67;100.00
804;BME280;25687;49.976;8.240;2023-01-19T12:26:31;99170.19;;;3.88;100.00
804;BME280;25687;49.976;8.240;2023-01-19T12:29:01;99168.66;;;3.64;100.00
804;BME280;25687;49.976;8.240;2023-01-19T12:31:27;99168.78;;;3.61;100.00
804;BME280;25687;49.976;8.240;2023-01-19T12:33:53;99162.88;;;3.81;100.00
804;BME280;25687;49.976;8.240;2023-01-19T12:41:37;99166.72;;;4.10;100.00
804;BME280;25687;49.976;8.240;2023-01-19T12:51:42;99160.06;;;3.66;100.00
804;BME280;25687;49.976;8.240;2023-01-19T12:54:07;99157.28;;;3.72;100.00
804;BME280;25687;49.976;8.240;2023-01-19T12:56:43;99164.03;;;3.74;100.00
804;BME280;25687;49.976;8.240;2023-01-19T12:59:13;99161.78;;;3.86;100.00
804;BME280;25687;49.976;8.240;2023-01-19T13:01:58;99159.06;;;3.91;100.00
804;BME280;25687;49.976;8.240;2023-01-19T13:04:31;99156.00;;;4.03;100.00
804;BME280;25687;49.976;8.240;2023-01-19T13:09:33;99164.50;;;4.23;100.00
804;BME280;25687;49.976;8.240;2023-01-19T13:14:40;99158.53;;;4.03;100.00
804;BME280;25687;49.976;8.240;2023-01-19T13:17:39;99160.63;;;3.94;100.00
804;BME280;25687;49.976;8.240;2023-01-19T13:19:59;99163.97;;;3.96;100.00
804;BME280;25687;49.976;8.240;2023-01-19T13:23:27;99160.81;;;3.89;100.00
804;BME280;25687;49.976;8.240;2023-01-19T13:25:27;99159.94;;;3.69;100.00
804;BME280;25687;49.976;8.240;2023-01-19T13:27:54;99163.50;;;3.65;100.00
804;BME280;25687;49.976;8.240;2023-01-19T13:30:19;99164.47;;;3.83;100.00
804;BME280;25687;49.976;8.240;2023-01-19T13:32:45;99166.81;;;3.67;100.00
804;BME280;25687;49.976;8.240;2023-01-19T13:35:15;99171.94;;;3.66;100.00
804;BME280;25687;49.976;8.240;2023-01-19T13:37:42;99172.72;;;3.68;100.00
804;BME280;25687;49.976;8.240;2023-01-19T13:40:14;99173.16;;;3.78;100.00
804;BME280;25687;49.976;8.240;2023-01-19T13:42:40;99173.47;;;4.11;100.00
804;BME280;25687;49.976;8.240;2023-01-19T13:47:47;99177.97;;;4.25;100.00
804;BME280;25687;49.976;8.240;2023-01-19T13:50:20;99174.44;;;4.09;100.00
804;BME280;25687;49.976;8.240;2023-01-19T13:52:46;99177.78;;;4.09;100.00
804;BME280;25687;49.976;8.240;2023-01-19T13:55:13;99183.28;;;4.00;100.00
804;BME280;25687;49.976;8.240;2023-01-19T13:57:40;99184.69;;;4.07;100.00
804;BME280;25687;49.976;8.240;2023-01-19T14:05:28;99184.88;;;4.02;100.00
804;BME280;25687;49.976;8.240;2023-01-19T14:10:26;99188.38;;;4.20;100.00
804;BME280;25687;49.976;8.240;2023-01-19T14:12:58;99192.50;;;4.23;100.00
804;BME280;25687;49.976;8.240;2023-01-19T14:15:24;99196.03;;;4.19;100.00
804;BME280;25687;49.976;8.240;2023-01-19T14:18:06;99192.75;;;3.96;100.00
804;BME280;25687;49.976;8.240;2023-01-19T14:20:31;99189.56;;;4.12;100.00
804;BME280;25687;49.976;8.240;2023-01-19T14:23:00;99198.84;;;4.13;100.00
804;BME280;25687;49.976;8.240;2023-01-19T14:25:33;99193.31;;;4.24;100.00
804;BME280;25687;49.976;8.240;2023-01-19T14:31:43;99198.66;;;3.97;100.00
804;BME280;25687;49.976;8.240;2023-01-19T14:33:41;99205.22;;;3.82;100.00
804;BME280;25687;49.976;8.240;2023-01-19T14:38:45;99209.59;;;3.58;100.00